Time;durP1;ratioP1;P1;durP2;ratioP2;P2;SDS_P1;SDS_P2;PMS_P1;PMS_P2;Temp;Humidity;BMP_temperature;BMP_pressure;BME280_temperature;BME280_humidity;BME280_pressure;Samples;Min_cycle;Max_cycle;Signal;HPM_P1;HPM_P2
2023/06/29 00:01:02;;;;;;;27.42;5.38;;;;;;;;;;5052749;28;20040;-55
2023/06/29 00:03:29;;;;;;;28.10;5.40;;;;;;;;;;5053487;28;20075;-54
2023/06/29 00:05:57;;;;;;;25.83;5.20;;;;;;;;;;5053440;28;20025;-59
2023/06/29 00:08:25;;;;;;;29.35;5.90;;;;;;;;;;5051964;28;20029;-54
2023/06/29 00:10:52;;;;;;;32.85;6.55;;;;;;;;;;5053535;28;20047;-60
2023/06/29 00:13:20;;;;;;;47.75;9.15;;;;;;;;;;5053220;28;20017;-56
2023/06/29 00:15:48;;;;;;;48.00;9.60;;;;;;;;;;5052458;28;20032;-59
2023/06/29 00:18:15;;;;;;;52.38;11.10;;;;;;;;;;5049300;28;20021;-59
2023/06/29 00:20:46;;;;;;;43.72;9.50;;;;;;;;;;5052307;28;20483;-54
2023/06/29 00:23:13;;;;;;;46.22;11.02;;;;;;;;;;5053247;28;20127;-60
2023/06/29 00:25:41;;;;;;;54.83;11.50;;;;;;;;;;5053315;28;20036;-60
2023/06/29 00:28:08;;;;;;;50.58;11.95;;;;;;;;;;5052916;28;20436;-58
2023/06/29 00:30:35;;;;;;;51.20;11.50;;;;;;;;;;5053390;28;20017;-55
2023/06/29 00:33:02;;;;;;;53.70;12.75;;;;;;;;;;5053028;28;20024;-55
2023/06/29 00:35:30;;;;;;;41.22;11.38;;;;;;;;;;5053195;28;20475;-53
2023/06/29 00:37:57;;;;;;;46.30;12.55;;;;;;;;;;5053019;28;20565;-60
2023/06/29 00:40:24;;;;;;;50.88;12.10;;;;;;;;;;5053071;28;20032;-60
2023/06/29 00:42:51;;;;;;;38.88;10.73;;;;;;;;;;5036224;28;20033;-60
2023/06/29 00:45:18;;;;;;;52.22;12.38;;;;;;;;;;5045366;28;20063;-60
2023/06/29 00:47:45;;;;;;;43.97;11.95;;;;;;;;;;5052877;28;20113;-56
2023/06/29 00:50:13;;;;;;;49.38;11.45;;;;;;;;;;5052548;28;20067;-60
2023/06/29 00:52:42;;;;;;;44.08;11.18;;;;;;;;;;5052844;28;20108;-60
2023/06/29 00:55:09;;;;;;;47.70;11.02;;;;;;;;;;5052082;28;20035;-60
2023/06/29 00:57:39;;;;;;;42.80;11.00;;;;;;;;;;5052574;28;20025;-56
2023/06/29 01:00:10;;;;;;;48.90;11.38;;;;;;;;;;5052620;28;20033;-55
2023/06/29 01:02:40;;;;;;;40.13;11.70;;;;;;;;;;5052405;28;20031;-56
2023/06/29 01:05:11;;;;;;;56.53;11.35;;;;;;;;;;5052770;28;20532;-60
2023/06/29 01:07:42;;;;;;;41.40;9.80;;;;;;;;;;5052288;28;20068;-54
2023/06/29 01:10:11;;;;;;;42.03;10.77;;;;;;;;;;5052497;28;20542;-54
2023/06/29 01:12:39;;;;;;;43.63;10.00;;;;;;;;;;5052543;28;20527;-60
2023/06/29 01:15:06;;;;;;;67.38;11.00;;;;;;;;;;5052210;28;20037;-60
2023/06/29 01:17:34;;;;;;;54.35;10.57;;;;;;;;;;5052012;28;20028;-55
2023/06/29 01:20:01;;;;;;;43.55;10.02;;;;;;;;;;5044512;28;20086;-60
2023/06/29 01:22:31;;;;;;;45.15;10.35;;;;;;;;;;5032105;28;20052;-57
2023/06/29 01:25:00;;;;;;;41.53;9.27;;;;;;;;;;5039084;28;20028;-54
2023/06/29 01:27:27;;;;;;;41.28;10.10;;;;;;;;;;5049829;28;20391;-59
2023/06/29 01:29:55;;;;;;;42.13;9.50;;;;;;;;;;5052123;28;20083;-59
2023/06/29 01:32:26;;;;;;;37.22;9.27;;;;;;;;;;5051536;28;20031;-59
2023/06/29 01:34:53;;;;;;;39.70;9.05;;;;;;;;;;5040565;28;20110;-53
2023/06/29 01:37:23;;;;;;;45.10;9.55;;;;;;;;;;5044161;28;20533;-53
2023/06/29 01:39:54;;;;;;;41.92;8.85;;;;;;;;;;5045274;28;20025;-59
2023/06/29 01:42:22;;;;;;;37.33;8.73;;;;;;;;;;5051765;28;20070;-58
2023/06/29 01:44:49;;;;;;;47.58;8.43;;;;;;;;;;5051693;28;20052;-59
2023/06/29 01:47:19;;;;;;;42.20;9.05;;;;;;;;;;5051802;28;20032;-54
2023/06/29 01:49:47;;;;;;;36.25;8.85;;;;;;;;;;5046989;28;20022;-55
2023/06/29 01:52:14;;;;;;;43.78;9.40;;;;;;;;;;5050628;28;20083;-53
2023/06/29 01:54:41;;;;;;;36.08;8.45;;;;;;;;;;5051031;28;20043;-59
2023/06/29 01:57:08;;;;;;;37.10;8.63;;;;;;;;;;5050921;28;20445;-52
2023/06/29 01:59:35;;;;;;;37.65;8.60;;;;;;;;;;5050882;28;20035;-55
2023/06/29 02:02:02;;;;;;;35.38;8.27;;;;;;;;;;5049758;28;20033;-54
2023/06/29 02:04:29;;;;;;;23.80;6.80;;;;;;;;;;5050379;28;20064;-52
2023/06/29 02:06:56;;;;;;;36.88;7.20;;;;;;;;;;5050468;28;20036;-59
2023/06/29 02:09:23;;;;;;;39.80;8.18;;;;;;;;;;5048497;28;20021;-53
2023/06/29 02:11:50;;;;;;;31.70;6.80;;;;;;;;;;5051188;28;20033;-54
2023/06/29 02:14:18;;;;;;;28.45;7.32;;;;;;;;;;5051019;28;20109;-59
2023/06/29 02:16:46;;;;;;;29.88;6.90;;;;;;;;;;5048440;28;20029;-59
2023/06/29 02:19:13;;;;;;;22.40;5.90;;;;;;;;;;5050998;28;20021;-59
2023/06/29 02:21:40;;;;;;;31.38;7.10;;;;;;;;;;5051124;28;20082;-59
2023/06/29 02:24:07;;;;;;;23.85;6.60;;;;;;;;;;5051675;28;20025;-59
2023/06/29 02:26:34;;;;;;;22.23;6.40;;;;;;;;;;5051439;28;20025;-59
2023/06/29 02:29:01;;;;;;;34.13;6.47;;;;;;;;;;5051483;28;20013;-59
2023/06/29 02:31:29;;;;;;;22.95;5.80;;;;;;;;;;5051575;28;20074;-60
2023/06/29 02:33:56;;;;;;;21.05;5.50;;;;;;;;;;5051505;28;20025;-59
2023/06/29 02:36:23;;;;;;;23.13;6.57;;;;;;;;;;5050109;28;20500;-59
2023/06/29 02:38:50;;;;;;;24.73;6.32;;;;;;;;;;5051518;28;20029;-59
2023/06/29 02:41:17;;;;;;;20.38;5.25;;;;;;;;;;5051335;28;20032;-59
2023/06/29 02:43:44;;;;;;;18.48;4.97;;;;;;;;;;5051441;28;20021;-59
2023/06/29 02:46:11;;;;;;;19.58;5.50;;;;;;;;;;5051289;28;20038;-59
2023/06/29 02:48:38;;;;;;;15.73;4.57;;;;;;;;;;5051433;28;20021;-59
2023/06/29 02:51:06;;;;;;;17.55;4.63;;;;;;;;;;5066555;28;20023;-59
2023/06/29 02:53:33;;;;;;;16.98;5.38;;;;;;;;;;5071377;28;20020;-59
2023/06/29 02:56:00;;;;;;;17.30;4.60;;;;;;;;;;5071362;28;20390;-59
2023/06/29 02:58:27;;;;;;;15.45;4.65;;;;;;;;;;5071165;28;20421;-59
2023/06/29 03:00:54;;;;;;;15.85;4.35;;;;;;;;;;5071299;28;20064;-59
2023/06/29 03:03:21;;;;;;;17.92;4.47;;;;;;;;;;5071129;28;20032;-59
2023/06/29 03:05:48;;;;;;;11.95;4.55;;;;;;;;;;5071210;28;20020;-59
2023/06/29 03:08:15;;;;;;;12.75;4.40;;;;;;;;;;5071268;28;20041;-59
2023/06/29 03:10:42;;;;;;;12.02;4.03;;;;;;;;;;5071219;28;20027;-59
2023/06/29 03:13:09;;;;;;;12.98;3.88;;;;;;;;;;5071203;28;20509;-59
2023/06/29 03:15:36;;;;;;;13.15;4.00;;;;;;;;;;5071143;28;20055;-59
2023/06/29 03:18:03;;;;;;;14.20;4.15;;;;;;;;;;5071048;28;20066;-59
2023/06/29 03:20:30;;;;;;;11.57;3.72;;;;;;;;;;5074467;28;20032;-54
2023/06/29 03:22:57;;;;;;;12.45;3.83;;;;;;;;;;5074751;28;20106;-54
2023/06/29 03:25:24;;;;;;;10.88;3.60;;;;;;;;;;5074905;28;20024;-53
2023/06/29 03:27:51;;;;;;;10.40;3.83;;;;;;;;;;5074643;28;20051;-55
2023/06/29 03:30:18;;;;;;;8.60;3.17;;;;;;;;;;5074804;28;20029;-53
2023/06/29 03:32:45;;;;;;;8.73;3.40;;;;;;;;;;5074757;28;20020;-55
2023/06/29 03:35:12;;;;;;;11.38;3.25;;;;;;;;;;5073249;28;20104;-55
2023/06/29 03:37:39;;;;;;;10.38;3.17;;;;;;;;;;5073072;28;20020;-54
2023/06/29 03:40:06;;;;;;;11.98;3.25;;;;;;;;;;5074569;28;20035;-53
2023/06/29 03:42:34;;;;;;;7.32;2.80;;;;;;;;;;5074597;28;20020;-54
2023/06/29 03:45:01;;;;;;;8.25;3.00;;;;;;;;;;5074541;28;20107;-53
2023/06/29 03:47:28;;;;;;;7.03;2.85;;;;;;;;;;5074447;28;20501;-56
2023/06/29 03:49:55;;;;;;;8.15;2.97;;;;;;;;;;5074449;28;20041;-51
2023/06/29 03:52:22;;;;;;;7.60;3.00;;;;;;;;;;5074274;28;20149;-54
2023/06/29 03:54:49;;;;;;;8.70;2.75;;;;;;;;;;5074360;28;20024;-54
2023/06/29 03:57:17;;;;;;;11.00;3.42;;;;;;;;;;5074170;28;20474;-52
2023/06/29 03:59:44;;;;;;;7.10;2.53;;;;;;;;;;5074181;28;20031;-53
2023/06/29 04:02:11;;;;;;;8.55;2.70;;;;;;;;;;5074066;28;20032;-56
2023/06/29 04:04:38;;;;;;;8.27;2.72;;;;;;;;;;5074124;28;20057;-56
2023/06/29 04:07:05;;;;;;;5.47;2.45;;;;;;;;;;5074047;28;20023;-56
2023/06/29 04:09:32;;;;;;;9.57;3.03;;;;;;;;;;5074084;28;20500;-56
2023/06/29 04:12:17;;;;;;;7.28;2.88;;;;;;;;;;5072635;28;20029;-55
2023/06/29 04:14:46;;;;;;;6.50;2.83;;;;;;;;;;5073999;28;20543;-53
2023/06/29 04:17:12;;;;;;;12.20;2.90;;;;;;;;;;5073848;28;20111;-55
2023/06/29 04:19:40;;;;;;;7.68;2.40;;;;;;;;;;5073857;28;20012;-56
2023/06/29 04:22:07;;;;;;;7.13;2.08;;;;;;;;;;5073421;28;20079;-59
2023/06/29 04:24:34;;;;;;;6.30;2.40;;;;;;;;;;5073806;28;20025;-59
2023/06/29 04:27:01;;;;;;;6.85;2.28;;;;;;;;;;5073678;28;20710;-53
2023/06/29 04:29:28;;;;;;;9.25;2.20;;;;;;;;;;5065188;28;20033;-59
2023/06/29 04:31:56;;;;;;;6.88;2.10;;;;;;;;;;5053618;28;20031;-59
2023/06/29 04:34:23;;;;;;;6.85;2.40;;;;;;;;;;5053442;28;20083;-59
2023/06/29 04:36:50;;;;;;;4.50;2.00;;;;;;;;;;5053492;28;20032;-59
2023/06/29 04:39:17;;;;;;;5.75;2.28;;;;;;;;;;5053425;28;20051;-59
2023/06/29 04:41:46;;;;;;;7.13;2.25;;;;;;;;;;5053370;28;20029;-59
2023/06/29 04:44:13;;;;;;;4.60;1.98;;;;;;;;;;5053240;28;20068;-59
2023/06/29 04:46:40;;;;;;;8.25;2.33;;;;;;;;;;5051858;28;20037;-59
2023/06/29 04:49:09;;;;;;;6.57;1.92;;;;;;;;;;5053336;28;20032;-59
2023/06/29 04:51:37;;;;;;;5.00;2.10;;;;;;;;;;5053345;28;20451;-59
2023/06/29 04:54:07;;;;;;;4.40;1.75;;;;;;;;;;5053214;28;20049;-59
2023/06/29 04:56:35;;;;;;;5.47;2.13;;;;;;;;;;5052857;28;20044;-59
2023/06/29 04:59:02;;;;;;;4.22;2.00;;;;;;;;;;5053008;28;20106;-59
2023/06/29 05:01:29;;;;;;;4.75;1.90;;;;;;;;;;5052970;28;20103;-59
2023/06/29 05:03:56;;;;;;;5.00;1.83;;;;;;;;;;5052972;28;20036;-59
2023/06/29 05:06:23;;;;;;;4.90;2.05;;;;;;;;;;5052836;28;20056;-59
2023/06/29 05:08:50;;;;;;;5.00;2.00;;;;;;;;;;5052963;28;20017;-59
2023/06/29 05:11:16;;;;;;;3.53;1.70;;;;;;;;;;5052885;28;20501;-59
2023/06/29 05:13:43;;;;;;;3.50;1.70;;;;;;;;;;5051394;28;20071;-59
2023/06/29 05:16:12;;;;;;;5.50;1.60;;;;;;;;;;5052629;28;20120;-59
2023/06/29 05:18:39;;;;;;;3.45;1.50;;;;;;;;;;5052579;28;20036;-59
2023/06/29 05:21:07;;;;;;;3.97;1.60;;;;;;;;;;5052602;28;20091;-59
2023/06/29 05:23:34;;;;;;;3.13;1.73;;;;;;;;;;5051879;28;20566;-54
2023/06/29 05:26:01;;;;;;;3.95;1.55;;;;;;;;;;5051831;28;20028;-58
2023/06/29 05:28:28;;;;;;;3.97;1.33;;;;;;;;;;5051969;28;20033;-53
2023/06/29 05:30:55;;;;;;;4.35;1.60;;;;;;;;;;5051888;28;20509;-52
2023/06/29 05:33:22;;;;;;;4.05;1.60;;;;;;;;;;5051840;28;20032;-54
2023/06/29 05:35:49;;;;;;;3.45;1.50;;;;;;;;;;5050668;28;20483;-59
2023/06/29 05:38:16;;;;;;;4.80;1.55;;;;;;;;;;5051797;28;20025;-59
2023/06/29 05:40:43;;;;;;;4.18;1.63;;;;;;;;;;5051336;28;20040;-54
2023/06/29 05:43:10;;;;;;;2.95;1.42;;;;;;;;;;5051173;28;20029;-51
2023/06/29 05:45:37;;;;;;;2.88;1.08;;;;;;;;;;5051568;28;20053;-54
2023/06/29 05:48:04;;;;;;;3.47;1.60;;;;;;;;;;5051478;28;20032;-59
2023/06/29 05:50:31;;;;;;;2.97;1.40;;;;;;;;;;5051513;28;20057;-55
2023/06/29 05:52:58;;;;;;;2.53;1.20;;;;;;;;;;5051507;28;20033;-59
2023/06/29 05:55:25;;;;;;;2.97;1.40;;;;;;;;;;5048778;28;20100;-59
2023/06/29 05:57:52;;;;;;;3.80;1.33;;;;;;;;;;5051434;28;20025;-59
2023/06/29 06:00:19;;;;;;;2.85;1.40;;;;;;;;;;5051757;28;20566;-59
2023/06/29 06:02:46;;;;;;;2.78;1.50;;;;;;;;;;5050620;28;20028;-59
2023/06/29 06:05:14;;;;;;;1.80;1.10;;;;;;;;;;5051842;28;20029;-60
2023/06/29 06:07:41;;;;;;;2.90;1.30;;;;;;;;;;5051698;28;20041;-59
2023/06/29 06:10:08;;;;;;;2.65;1.20;;;;;;;;;;5051783;28;20025;-59
2023/06/29 06:12:35;;;;;;;3.60;1.38;;;;;;;;;;5051817;28;20032;-59
2023/06/29 06:15:02;;;;;;;3.55;1.00;;;;;;;;;;5051775;28;20119;-59
2023/06/29 06:17:29;;;;;;;3.78;1.45;;;;;;;;;;5051569;28;20482;-59
2023/06/29 06:19:56;;;;;;;2.33;1.30;;;;;;;;;;5051674;28;20387;-59
2023/06/29 06:22:23;;;;;;;2.03;0.95;;;;;;;;;;5051540;28;20157;-59
2023/06/29 06:24:50;;;;;;;2.15;1.10;;;;;;;;;;5051650;28;20103;-59
2023/06/29 06:27:17;;;;;;;2.72;1.20;;;;;;;;;;5051507;28;20064;-59
2023/06/29 06:29:44;;;;;;;1.63;1.00;;;;;;;;;;5051586;28;20100;-59
2023/06/29 06:32:11;;;;;;;3.13;1.15;;;;;;;;;;5051551;28;20033;-54
2023/06/29 06:34:38;;;;;;;2.47;1.02;;;;;;;;;;5051638;28;20029;-53
2023/06/29 06:37:05;;;;;;;2.28;1.10;;;;;;;;;;5051451;28;20091;-54
2023/06/29 06:39:32;;;;;;;1.63;1.00;;;;;;;;;;5051482;28;20025;-55
2023/06/29 06:42:00;;;;;;;2.53;1.20;;;;;;;;;;5051406;28;20101;-50
2023/06/29 06:44:27;;;;;;;2.42;1.00;;;;;;;;;;5051456;28;20505;-59
2023/06/29 06:46:54;;;;;;;3.80;1.00;;;;;;;;;;5051363;28;20025;-59
2023/06/29 06:49:21;;;;;;;2.08;1.10;;;;;;;;;;5051383;28;20033;-59
2023/06/29 06:51:49;;;;;;;2.63;1.10;;;;;;;;;;5051406;28;20033;-59
2023/06/29 06:54:16;;;;;;;1.95;1.08;;;;;;;;;;5054559;28;20040;-59
2023/06/29 06:56:43;;;;;;;2.15;1.15;;;;;;;;;;5055352;28;20035;-59
2023/06/29 06:59:10;;;;;;;2.08;0.82;;;;;;;;;;5055388;28;20781;-59
2023/06/29 07:01:41;;;;;;;2.25;1.00;;;;;;;;;;5055168;28;20043;-59
2023/06/29 07:04:08;;;;;;;3.10;1.00;;;;;;;;;;5035403;28;20025;-59
2023/06/29 07:06:35;;;;;;;2.35;0.80;;;;;;;;;;5035209;28;20040;-59
2023/06/29 07:09:03;;;;;;;1.70;0.90;;;;;;;;;;5035284;28;20099;-59
2023/06/29 07:11:30;;;;;;;2.13;0.82;;;;;;;;;;5035141;28;20733;-59
2023/06/29 07:13:57;;;;;;;2.08;1.05;;;;;;;;;;5035219;28;20405;-59
2023/06/29 07:16:25;;;;;;;1.15;0.73;;;;;;;;;;5034967;28;20025;-59
2023/06/29 07:19:03;;;;;;;3.45;0.98;;;;;;;;;;5035006;28;20110;-59
2023/06/29 07:21:30;;;;;;;1.35;0.80;;;;;;;;;;5034752;28;20048;-59
2023/06/29 07:23:57;;;;;;;2.53;0.80;;;;;;;;;;5035030;28;20035;-59
2023/06/29 07:26:24;;;;;;;1.67;0.70;;;;;;;;;;5034839;28;20475;-59
2023/06/29 07:28:51;;;;;;;1.77;0.80;;;;;;;;;;5050110;28;20041;-59
2023/06/29 07:31:18;;;;;;;1.88;0.80;;;;;;;;;;5034916;28;20033;-59
2023/06/29 07:33:45;;;;;;;2.92;1.00;;;;;;;;;;5034830;28;20432;-59
2023/06/29 07:36:12;;;;;;;1.83;0.90;;;;;;;;;;5034662;28;20491;-59
2023/06/29 07:38:39;;;;;;;1.33;0.80;;;;;;;;;;5034724;28;20495;-59
2023/06/29 07:41:08;;;;;;;1.40;0.80;;;;;;;;;;5034567;28;20049;-59
2023/06/29 07:43:35;;;;;;;1.38;0.85;;;;;;;;;;5034526;28;20041;-59
2023/06/29 07:46:02;;;;;;;1.25;0.73;;;;;;;;;;5034480;28;20037;-59
2023/06/29 07:48:29;;;;;;;1.10;0.70;;;;;;;;;;5034537;28;20035;-59
2023/06/29 07:50:56;;;;;;;1.73;0.90;;;;;;;;;;5034469;28;20025;-59
2023/06/29 07:53:23;;;;;;;0.90;0.60;;;;;;;;;;5034455;28;20076;-59
2023/06/29 07:55:50;;;;;;;2.30;0.65;;;;;;;;;;5034361;28;20030;-59
2023/06/29 07:58:17;;;;;;;1.55;0.80;;;;;;;;;;5034409;28;20049;-59
2023/06/29 08:00:44;;;;;;;1.50;0.70;;;;;;;;;;5034211;28;20041;-59
2023/06/29 08:03:11;;;;;;;3.13;0.77;;;;;;;;;;5034283;28;20029;-60
2023/06/29 08:05:39;;;;;;;1.13;0.60;;;;;;;;;;5033256;28;20029;-59
2023/06/29 08:08:05;;;;;;;1.17;0.60;;;;;;;;;;5034170;28;20026;-59
2023/06/29 08:10:32;;;;;;;1.70;0.70;;;;;;;;;;5034129;28;20456;-59
2023/06/29 08:13:01;;;;;;;1.10;0.60;;;;;;;;;;5034093;28;20078;-59
2023/06/29 08:15:28;;;;;;;0.98;0.63;;;;;;;;;;5034026;28;20033;-59
2023/06/29 08:17:55;;;;;;;1.17;0.50;;;;;;;;;;5033985;28;20025;-59
2023/06/29 08:20:22;;;;;;;0.95;0.52;;;;;;;;;;5049137;28;20399;-59
2023/06/29 08:22:49;;;;;;;1.30;0.60;;;;;;;;;;5033808;28;20046;-59
2023/06/29 08:25:16;;;;;;;1.55;0.70;;;;;;;;;;5033725;28;20029;-59
2023/06/29 08:27:43;;;;;;;2.35;0.60;;;;;;;;;;5033799;28;20430;-59
2023/06/29 08:30:11;;;;;;;1.00;0.65;;;;;;;;;;5033805;28;20514;-59
2023/06/29 08:32:38;;;;;;;1.30;0.50;;;;;;;;;;5033774;28;20770;-59
2023/06/29 08:35:05;;;;;;;2.28;0.70;;;;;;;;;;5033600;28;20021;-59
2023/06/29 08:37:32;;;;;;;0.75;0.60;;;;;;;;;;5033573;28;20053;-59
2023/06/29 08:39:59;;;;;;;0.95;0.50;;;;;;;;;;5033589;28;20033;-59
2023/06/29 08:42:26;;;;;;;1.38;0.50;;;;;;;;;;5033498;28;20033;-59
2023/06/29 08:44:54;;;;;;;1.73;0.70;;;;;;;;;;5033524;28;20099;-59
2023/06/29 08:47:21;;;;;;;0.75;0.50;;;;;;;;;;5033284;28;20116;-53
2023/06/29 08:49:49;;;;;;;1.00;0.60;;;;;;;;;;5033425;28;20053;-52
2023/06/29 08:52:17;;;;;;;1.05;0.52;;;;;;;;;;5033353;28;20045;-54
2023/06/29 08:54:45;;;;;;;2.05;0.77;;;;;;;;;;5030104;28;20052;-52
2023/06/29 08:57:12;;;;;;;1.42;0.70;;;;;;;;;;5033112;28;20030;-53
2023/06/29 08:59:40;;;;;;;1.23;0.55;;;;;;;;;;5033269;28;20044;-55
2023/06/29 09:02:07;;;;;;;1.85;0.50;;;;;;;;;;5047742;28;20041;-54
2023/06/29 09:04:36;;;;;;;1.33;0.60;;;;;;;;;;5052643;28;20058;-52
2023/06/29 09:07:03;;;;;;;0.98;0.50;;;;;;;;;;5052684;28;20044;-59
2023/06/29 09:09:30;;;;;;;1.77;0.63;;;;;;;;;;5052382;28;20036;-58
2023/06/29 09:11:57;;;;;;;1.67;0.60;;;;;;;;;;5052792;28;20021;-58
2023/06/29 09:14:24;;;;;;;1.90;0.70;;;;;;;;;;5052388;28;20037;-54
2023/06/29 09:16:57;;;;;;;0.82;0.55;;;;;;;;;;5052407;28;20486;-59
2023/06/29 09:19:25;;;;;;;1.00;0.52;;;;;;;;;;5051828;28;20112;-59
2023/06/29 09:21:52;;;;;;;3.08;0.60;;;;;;;;;;5051902;28;20052;-58
2023/06/29 09:24:20;;;;;;;2.95;0.85;;;;;;;;;;5051937;28;20037;-59
2023/06/29 09:26:55;;;;;;;4.40;1.00;;;;;;;;;;5050728;28;20025;-58
2023/06/29 09:29:23;;;;;;;2.90;0.60;;;;;;;;;;5048855;28;20052;-56
2023/06/29 09:31:57;;;;;;;1.20;0.75;;;;;;;;;;5049557;28;20490;-55
2023/06/29 09:34:25;;;;;;;2.55;0.80;;;;;;;;;;5050761;28;20029;-58
2023/06/29 09:36:53;;;;;;;4.30;0.82;;;;;;;;;;5052227;28;20037;-57
2023/06/29 09:39:21;;;;;;;1.33;0.60;;;;;;;;;;5049747;28;20394;-53
2023/06/29 09:41:52;;;;;;;2.10;0.88;;;;;;;;;;5052251;28;20032;-58
2023/06/29 09:44:20;;;;;;;1.98;0.65;;;;;;;;;;5051915;28;20112;-53
2023/06/29 09:46:51;;;;;;;5.10;0.77;;;;;;;;;;5051860;28;20486;-52
2023/06/29 09:49:18;;;;;;;4.15;0.80;;;;;;;;;;5052165;28;20032;-53
2023/06/29 09:51:45;;;;;;;3.00;0.80;;;;;;;;;;5051927;28;20391;-54
2023/06/29 09:54:13;;;;;;;2.88;0.80;;;;;;;;;;5052162;28;20056;-55
2023/06/29 09:56:41;;;;;;;3.17;0.80;;;;;;;;;;5051954;28;20043;-54
2023/06/29 09:59:11;;;;;;;1.17;0.60;;;;;;;;;;5052013;28;20055;-52
2023/06/29 10:01:40;;;;;;;3.42;0.75;;;;;;;;;;5051888;28;20049;-54
2023/06/29 10:04:07;;;;;;;3.67;0.70;;;;;;;;;;5051899;28;20041;-54
2023/06/29 10:06:44;;;;;;;15.75;1.20;;;;;;;;;;5046038;28;20079;-62
2023/06/29 10:09:19;;;;;;;4.10;0.65;;;;;;;;;;5044204;28;20048;-61
2023/06/29 10:11:51;;;;;;;3.72;0.70;;;;;;;;;;5044997;28;20037;-54
2023/06/29 10:14:19;;;;;;;3.70;0.80;;;;;;;;;;5050384;28;20036;-50
2023/06/29 10:16:46;;;;;;;1.60;0.63;;;;;;;;;;5049498;28;20394;-53
2023/06/29 10:19:22;;;;;;;3.83;0.85;;;;;;;;;;5046813;28;20034;-49
2023/06/29 10:21:58;;;;;;;2.55;0.60;;;;;;;;;;5031568;28;20037;-48
2023/06/29 10:24:33;;;;;;;5.97;0.70;;;;;;;;;;5031667;28;20033;-49
2023/06/29 10:27:01;;;;;;;2.38;0.52;;;;;;;;;;5031567;28;20375;-48
2023/06/29 10:29:28;;;;;;;6.93;0.70;;;;;;;;;;5031461;28;20566;-52
2023/06/29 10:31:59;;;;;;;1.60;0.73;;;;;;;;;;5031572;28;20373;-49
2023/06/29 10:34:26;;;;;;;3.55;0.80;;;;;;;;;;5031566;28;20514;-52
2023/06/29 10:36:55;;;;;;;1.63;0.63;;;;;;;;;;5031588;28;20096;-51
2023/06/29 10:39:40;;;;;;;1.23;0.57;;;;;;;;;;5031592;28;20033;-53
2023/06/29 10:42:30;;;;;;;1.15;0.63;;;;;;;;;;5031484;28;20033;-51
2023/06/29 10:44:57;;;;;;;5.82;0.95;;;;;;;;;;5031383;28;20041;-53
2023/06/29 10:47:28;;;;;;;2.50;0.60;;;;;;;;;;5030230;28;20056;-49
2023/06/29 10:50:10;;;;;;;3.38;0.70;;;;;;;;;;5031492;28;20030;-48
2023/06/29 10:52:41;;;;;;;2.20;0.60;;;;;;;;;;5031510;28;20438;-48
2023/06/29 10:55:18;;;;;;;2.90;0.70;;;;;;;;;;5031437;28;20037;-48
2023/06/29 10:57:48;;;;;;;5.25;0.70;;;;;;;;;;5031449;28;20030;-48
2023/06/29 11:00:16;;;;;;;2.83;0.70;;;;;;;;;;5031386;28;20026;-51
2023/06/29 11:02:44;;;;;;;11.45;1.02;;;;;;;;;;5031411;28;20030;-49
2023/06/29 11:05:17;;;;;;;2.22;0.63;;;;;;;;;;5031338;28;20033;-52
2023/06/29 11:07:45;;;;;;;1.85;0.50;;;;;;;;;;5031399;28;20018;-52
2023/06/29 11:10:12;;;;;;;1.95;0.85;;;;;;;;;;5030899;28;20065;-50
2023/06/29 11:12:40;;;;;;;3.63;0.88;;;;;;;;;;5031393;28;20136;-52
2023/06/29 11:15:14;;;;;;;1.05;0.65;;;;;;;;;;5031201;28;20030;-48
2023/06/29 11:17:41;;;;;;;1.30;0.50;;;;;;;;;;5031291;28;20029;-48
2023/06/29 11:20:18;;;;;;;1.33;0.68;;;;;;;;;;5031202;28;20052;-49
2023/06/29 11:22:45;;;;;;;2.03;0.65;;;;;;;;;;5031133;28;20046;-52
2023/06/29 11:25:14;;;;;;;1.85;0.70;;;;;;;;;;5029869;28;20037;-47
2023/06/29 11:27:41;;;;;;;1.15;0.70;;;;;;;;;;5031180;28;20022;-48
2023/06/29 11:30:09;;;;;;;1.42;0.60;;;;;;;;;;5031174;28;20079;-51
2023/06/29 11:32:37;;;;;;;1.60;0.60;;;;;;;;;;5031092;28;20029;-47
2023/06/29 11:35:05;;;;;;;0.88;0.45;;;;;;;;;;5031094;28;20033;-49
2023/06/29 11:37:32;;;;;;;3.17;0.65;;;;;;;;;;5031119;28;20487;-48
2023/06/29 11:39:59;;;;;;;1.20;0.50;;;;;;;;;;5032134;28;20025;-52
2023/06/29 11:42:26;;;;;;;1.77;0.50;;;;;;;;;;5034526;28;20056;-50
2023/06/29 11:45:04;;;;;;;1.45;0.70;;;;;;;;;;5034533;28;20055;-48
2023/06/29 11:47:31;;;;;;;1.05;0.50;;;;;;;;;;5034638;28;20055;-47
2023/06/29 11:50:00;;;;;;;3.42;0.60;;;;;;;;;;5034520;28;20030;-50
2023/06/29 11:52:31;;;;;;;1.35;0.50;;;;;;;;;;5034407;28;20033;-47
2023/06/29 11:54:59;;;;;;;1.27;0.75;;;;;;;;;;5034299;28;20036;-49
2023/06/29 11:57:26;;;;;;;2.50;0.63;;;;;;;;;;5034363;28;20025;-50
2023/06/29 11:59:53;;;;;;;0.73;0.40;;;;;;;;;;5034334;28;20029;-51
2023/06/29 12:02:20;;;;;;;1.13;0.55;;;;;;;;;;5034181;28;20091;-48
2023/06/29 12:04:55;;;;;;;0.77;0.57;;;;;;;;;;5040475;28;20036;-51
2023/06/29 12:07:42;;;;;;;0.80;0.47;;;;;;;;;;5065693;28;20021;-46
2023/06/29 12:10:13;;;;;;;0.88;0.50;;;;;;;;;;5053415;28;20083;-52
2023/06/29 12:12:42;;;;;;;2.05;0.65;;;;;;;;;;5054069;28;20040;-50
2023/06/29 12:15:19;;;;;;;1.00;0.45;;;;;;;;;;5053889;28;20037;-50
2023/06/29 12:17:47;;;;;;;1.20;0.50;;;;;;;;;;5053883;28;20514;-48
2023/06/29 12:20:20;;;;;;;2.13;0.60;;;;;;;;;;5052893;28;20651;-49
2023/06/29 12:22:49;;;;;;;2.75;0.65;;;;;;;;;;5053180;28;20068;-47
2023/06/29 12:25:17;;;;;;;1.00;0.50;;;;;;;;;;5053607;28;20027;-51
2023/06/29 12:27:45;;;;;;;2.38;0.47;;;;;;;;;;5051272;28;20037;-52
2023/06/29 12:30:16;;;;;;;2.03;0.60;;;;;;;;;;5060762;28;20391;-47
2023/06/29 12:32:46;;;;;;;2.22;0.60;;;;;;;;;;5053335;28;20065;-48
2023/06/29 12:35:13;;;;;;;2.20;0.50;;;;;;;;;;5052741;28;20040;-47
2023/06/29 12:37:40;;;;;;;1.92;0.70;;;;;;;;;;5052274;28;20116;-51
2023/06/29 12:40:08;;;;;;;2.13;0.60;;;;;;;;;;5050367;28;20044;-48
2023/06/29 12:42:37;;;;;;;4.75;0.70;;;;;;;;;;5052822;28;20048;-49
2023/06/29 12:45:05;;;;;;;5.32;0.80;;;;;;;;;;5053275;28;20040;-52
2023/06/29 12:47:35;;;;;;;1.63;0.60;;;;;;;;;;5053354;28;20108;-50
2023/06/29 12:50:04;;;;;;;7.05;0.88;;;;;;;;;;5053208;28;20072;-50
2023/06/29 12:52:31;;;;;;;4.82;0.73;;;;;;;;;;5053030;28;20033;-49
2023/06/29 12:54:58;;;;;;;4.72;0.82;;;;;;;;;;5053162;28;20025;-49
2023/06/29 12:57:26;;;;;;;3.45;0.70;;;;;;;;;;5053114;28;20418;-53
2023/06/29 12:59:54;;;;;;;5.25;0.70;;;;;;;;;;5053118;28;20037;-51
2023/06/29 13:02:21;;;;;;;7.63;0.80;;;;;;;;;;5053069;28;20049;-50
2023/06/29 13:04:48;;;;;;;2.35;0.70;;;;;;;;;;5053017;28;20026;-49
2023/06/29 13:07:19;;;;;;;2.03;0.70;;;;;;;;;;5051644;28;20029;-50
2023/06/29 13:09:51;;;;;;;2.15;0.60;;;;;;;;;;5053043;28;20552;-51
2023/06/29 13:12:19;;;;;;;5.13;0.50;;;;;;;;;;5052862;28;20103;-52
2023/06/29 13:14:46;;;;;;;3.75;0.70;;;;;;;;;;5052879;28;20546;-50
2023/06/29 13:17:14;;;;;;;2.63;0.68;;;;;;;;;;5052840;28;20025;-52
2023/06/29 13:19:44;;;;;;;2.63;0.70;;;;;;;;;;5052799;28;20494;-54
2023/06/29 13:22:11;;;;;;;2.08;0.65;;;;;;;;;;5051097;28;20072;-53
2023/06/29 13:24:38;;;;;;;7.88;0.80;;;;;;;;;;5052694;28;20037;-53
2023/06/29 13:27:06;;;;;;;4.68;0.60;;;;;;;;;;5052558;28;20032;-50
2023/06/29 13:29:35;;;;;;;5.75;0.90;;;;;;;;;;5052559;28;20032;-52
2023/06/29 13:32:02;;;;;;;4.40;0.93;;;;;;;;;;5052541;28;20560;-51
2023/06/29 13:34:29;;;;;;;4.13;0.73;;;;;;;;;;5052545;28;20061;-50
2023/06/29 13:36:56;;;;;;;2.13;0.63;;;;;;;;;;5052360;28;20483;-50
2023/06/29 13:39:23;;;;;;;3.05;0.80;;;;;;;;;;5051067;28;20473;-53
2023/06/29 13:41:50;;;;;;;3.95;0.70;;;;;;;;;;5052310;28;20113;-50
2023/06/29 13:44:17;;;;;;;5.93;0.60;;;;;;;;;;5052340;28;20116;-51
2023/06/29 13:46:47;;;;;;;5.45;0.70;;;;;;;;;;5052228;28;20025;-52
2023/06/29 13:49:15;;;;;;;3.92;0.60;;;;;;;;;;5052272;28;20021;-51
2023/06/29 13:51:42;;;;;;;4.22;0.70;;;;;;;;;;5052149;28;20041;-49
2023/06/29 13:54:09;;;;;;;3.95;0.70;;;;;;;;;;5052183;28;20040;-51
2023/06/29 13:56:37;;;;;;;5.88;0.90;;;;;;;;;;5051983;28;20522;-51
2023/06/29 13:59:06;;;;;;;4.80;0.80;;;;;;;;;;5052022;28;20032;-50
2023/06/29 14:01:35;;;;;;;1.65;0.55;;;;;;;;;;5051846;28;20082;-49
2023/06/29 14:04:02;;;;;;;6.38;0.80;;;;;;;;;;5051294;28;20041;-49
2023/06/29 14:06:29;;;;;;;3.28;0.60;;;;;;;;;;5051844;28;20029;-51
2023/06/29 14:08:56;;;;;;;4.82;1.00;;;;;;;;;;5051936;28;20029;-53
2023/06/29 14:11:23;;;;;;;3.88;0.82;;;;;;;;;;5051814;28;20037;-49
2023/06/29 14:13:51;;;;;;;6.00;0.70;;;;;;;;;;5051861;28;20029;-50
2023/06/29 14:16:18;;;;;;;7.75;0.80;;;;;;;;;;5051697;28;20483;-50
2023/06/29 14:18:45;;;;;;;7.78;0.80;;;;;;;;;;5051655;28;20032;-50
2023/06/29 14:21:12;;;;;;;6.38;0.77;;;;;;;;;;5051585;28;20033;-53
2023/06/29 14:23:42;;;;;;;3.70;0.60;;;;;;;;;;5051405;28;20103;-53
2023/06/29 14:26:10;;;;;;;4.38;0.60;;;;;;;;;;5051587;28;20122;-52
2023/06/29 14:28:37;;;;;;;4.38;0.60;;;;;;;;;;5051570;28;20039;-49
2023/06/29 14:31:04;;;;;;;8.13;0.70;;;;;;;;;;5048303;28;20102;-51
2023/06/29 14:33:33;;;;;;;6.15;1.05;;;;;;;;;;5051630;28;20056;-53
2023/06/29 14:36:00;;;;;;;5.88;1.08;;;;;;;;;;5051401;28;20026;-51
2023/06/29 14:38:27;;;;;;;5.95;0.90;;;;;;;;;;5051514;28;20033;-49
2023/06/29 14:40:54;;;;;;;2.63;0.80;;;;;;;;;;5051447;28;20029;-51
2023/06/29 14:43:21;;;;;;;6.35;0.82;;;;;;;;;;5051473;28;20060;-51